createdAt,value
2022-08-05T00:01:35.938Z,73.23
2022-08-05T00:04:17.890Z,73.36
2022-08-05T00:06:47.244Z,73.42
2022-08-05T00:09:20.318Z,73.48
2022-08-05T00:11:55.638Z,73.50
2022-08-05T00:14:27.594Z,73.73
2022-08-05T00:16:57.913Z,73.84
2022-08-05T00:19:33.322Z,73.93
2022-08-05T00:22:13.967Z,73.90
2022-08-05T00:24:45.869Z,74.09
2022-08-05T00:27:35.646Z,74.08
2022-08-05T00:30:05.619Z,74.19
2022-08-05T00:32:39.469Z,74.39
2022-08-05T00:35:09.150Z,74.36
2022-08-05T00:37:53.316Z,74.54
2022-08-05T00:40:27.390Z,74.71
2022-08-05T00:42:58.573Z,74.77
2022-08-05T00:45:38.065Z,74.80
2022-08-05T00:48:09.312Z,74.80
2022-08-05T00:50:44.381Z,74.85
2022-08-05T00:54:00.867Z,74.80
2022-08-05T00:56:07.835Z,74.91
2022-08-05T00:58:36.933Z,74.81
2022-08-05T01:01:08.651Z,74.98
2022-08-05T01:03:39.262Z,75.12
2022-08-05T01:06:14.046Z,75.23
2022-08-05T01:08:44.749Z,75.45
2022-08-05T01:11:37.794Z,75.54
2022-08-05T01:14:15.412Z,75.56
2022-08-05T01:16:55.337Z,75.57
2022-08-05T01:19:36.565Z,75.65
2022-08-05T01:22:27.707Z,75.67
2022-08-05T01:25:17.286Z,75.61
2022-08-05T01:28:18.060Z,75.83
2022-08-05T01:30:55.311Z,75.73
2022-08-05T01:33:26.423Z,76.00
2022-08-05T01:35:57.605Z,76.29
2022-08-05T01:38:29.191Z,76.45
2022-08-05T01:41:00.098Z,76.37
2022-08-05T01:43:32.259Z,76.44
2022-08-05T01:46:07.370Z,76.47
2022-08-05T01:48:49.535Z,76.52
2022-08-05T01:51:19.311Z,76.47
2022-08-05T01:53:56.974Z,76.70
2022-08-05T01:58:13.860Z,76.74
2022-08-05T01:59:23.191Z,76.79
2022-08-05T02:01:55.504Z,76.77
2022-08-05T02:04:26.649Z,76.76
2022-08-05T02:06:57.859Z,76.77
2022-08-05T02:09:26.832Z,76.83
2022-08-05T02:12:06.717Z,76.82
2022-08-05T02:14:52.786Z,77.15
2022-08-05T02:18:28.357Z,76.99
2022-08-05T02:20:30.752Z,77.13
2022-08-05T02:23:11.133Z,76.96
2022-08-05T02:25:49.111Z,77.06
2022-08-05T02:28:31.247Z,77.20
2022-08-05T02:31:14.857Z,77.07
2022-08-05T02:34:12.059Z,77.48
2022-08-05T02:36:44.117Z,77.06
2022-08-05T02:39:13.443Z,77.21
2022-08-05T02:42:00.930Z,77.44
2022-08-05T02:44:32.244Z,77.35
2022-08-05T02:47:02.209Z,77.15
2022-08-05T02:49:37.750Z,77.57
2022-08-05T02:52:29.798Z,77.46
2022-08-05T02:55:05.431Z,77.71
2022-08-05T02:58:09.833Z,77.84
2022-08-05T03:00:27.736Z,77.65
2022-08-05T03:02:57.663Z,77.85
2022-08-05T03:06:56.095Z,77.98
2022-08-05T03:08:14.935Z,77.73
2022-08-05T03:11:01.281Z,77.72
2022-08-05T03:13:52.094Z,77.78
2022-08-05T03:16:21.988Z,77.58
2022-08-05T03:18:51.377Z,77.99
2022-08-05T03:21:19.934Z,78.39
2022-08-05T03:23:50.353Z,78.28
2022-08-05T03:26:31.122Z,78.22
2022-08-05T03:29:00.967Z,78.05
2022-08-05T03:31:55.949Z,78.15
2022-08-05T03:34:18.152Z,78.06
2022-08-05T03:36:46.334Z,78.29
2022-08-05T03:39:20.201Z,78.39
2022-08-05T03:41:56.536Z,78.21
2022-08-05T03:44:25.342Z,78.27
2022-08-05T03:46:57.250Z,78.36
2022-08-05T03:49:30.881Z,78.09
2022-08-05T03:52:49.384Z,78.15
2022-08-05T03:56:05.357Z,78.22
2022-08-05T03:58:11.252Z,78.36
2022-08-05T04:00:41.979Z,78.40
2022-08-05T04:03:15.036Z,78.36
2022-08-05T04:05:59.269Z,78.25
2022-08-05T04:08:36.513Z,78.43
2022-08-05T04:11:08.581Z,78.37
2022-08-05T04:13:50.647Z,78.67
2022-08-05T04:16:24.959Z,78.63
2022-08-05T04:19:00.623Z,78.34
2022-08-05T04:22:09.624Z,78.41
2022-08-05T04:24:19.204Z,78.20
2022-08-05T04:26:51.056Z,78.36
2022-08-05T04:29:19.671Z,78.41
2022-08-05T04:31:48.333Z,78.21
2022-08-05T04:34:32.722Z,78.41
2022-08-05T04:37:03.562Z,78.37
2022-08-05T04:39:32.422Z,78.29
2022-08-05T04:42:04.050Z,78.21
2022-08-05T04:44:32.246Z,77.96
2022-08-05T04:47:09.400Z,77.87
2022-08-05T04:50:02.133Z,77.88
2022-08-05T04:52:29.245Z,77.85
2022-08-05T04:55:13.803Z,77.82
2022-08-05T04:57:47.996Z,77.48
2022-08-05T05:00:23.235Z,77.32
2022-08-05T05:02:54.930Z,77.44
2022-08-05T05:05:28.879Z,77.28
2022-08-05T05:08:05.557Z,77.23
2022-08-05T05:10:47.232Z,77.02
2022-08-05T05:13:24.059Z,76.90
2022-08-05T05:15:56.796Z,76.73
2022-08-05T05:18:33.416Z,76.51
2022-08-05T05:21:06.570Z,76.49
2022-08-05T05:24:01.923Z,76.25
2022-08-05T05:26:28.778Z,76.06
2022-08-05T05:29:14.388Z,75.61
2022-08-05T05:31:43.316Z,75.12
2022-08-05T05:34:15.442Z,74.72
2022-08-05T05:36:43.895Z,74.46
2022-08-05T05:39:15.032Z,74.06
2022-08-05T05:41:54.260Z,73.87
2022-08-05T05:44:36.766Z,73.57
2022-08-05T05:47:21.255Z,73.33
2022-08-05T05:49:56.971Z,73.11
2022-08-05T05:52:34.537Z,72.78
2022-08-05T05:55:13.400Z,72.59
2022-08-05T05:57:52.409Z,71.66
2022-08-05T06:00:27.787Z,69.71
2022-08-05T06:03:01.796Z,69.56
2022-08-05T06:05:29.850Z,69.49
2022-08-05T06:08:01.902Z,69.25
2022-08-05T06:10:36.285Z,69.19
2022-08-05T06:13:05.401Z,68.60
2022-08-05T06:16:28.159Z,68.31
2022-08-05T06:18:31.060Z,68.46
2022-08-05T06:21:00.274Z,68.28
2022-08-05T06:23:43.669Z,68.05
2022-08-05T06:26:21.439Z,67.38
2022-08-05T06:29:00.238Z,66.92
2022-08-05T06:31:32.163Z,66.64
2022-08-05T06:34:07.550Z,66.40
2022-08-05T06:36:57.349Z,66.12
2022-08-05T06:39:27.219Z,65.95
2022-08-05T06:42:04.029Z,66.07
2022-08-05T06:44:32.382Z,66.11
2022-08-05T06:47:02.252Z,65.66
2022-08-05T06:49:59.885Z,65.39
2022-08-05T06:52:37.152Z,64.62
2022-08-05T06:55:07.595Z,64.82
2022-08-05T06:57:57.144Z,65.39
2022-08-05T07:00:25.550Z,64.80
2022-08-05T07:02:54.218Z,64.41
2022-08-05T07:05:31.791Z,64.12
2022-08-05T07:08:10.678Z,64.36
2022-08-05T07:10:52.729Z,63.88
2022-08-05T07:13:57.947Z,63.59
2022-08-05T07:18:00.690Z,63.77
2022-08-05T07:22:29.120Z,63.38
2022-08-05T07:25:23.686Z,63.30
2022-08-05T07:27:57.585Z,63.25
2022-08-05T07:30:39.194Z,63.13
2022-08-05T07:33:16.672Z,62.62
2022-08-05T07:36:05.059Z,62.18
2022-08-05T07:38:43.684Z,61.93
2022-08-05T07:42:13.277Z,61.47
2022-08-05T07:44:14.245Z,61.63
2022-08-05T07:46:49.601Z,60.70
2022-08-05T07:49:20.820Z,59.95
2022-08-05T07:51:54.182Z,59.85
2022-08-05T07:54:30.980Z,59.92
2022-08-05T07:57:41.997Z,59.57
2022-08-05T07:59:50.776Z,59.68
2022-08-05T08:02:26.732Z,59.68
2022-08-05T08:05:00.099Z,59.95
2022-08-05T08:07:39.559Z,59.75
2022-08-05T08:10:20.733Z,59.82
2022-08-05T08:12:50.152Z,60.14
2022-08-05T08:15:28.075Z,59.63
2022-08-05T08:18:13.924Z,59.33
2022-08-05T08:21:00.236Z,59.52
2022-08-05T08:24:02.127Z,59.10
2022-08-05T08:26:17.954Z,58.59
2022-08-05T08:29:21.666Z,58.31
2022-08-05T08:31:50.232Z,57.36
2022-08-05T08:34:30.899Z,56.77
2022-08-05T08:37:03.285Z,56.45
2022-08-05T08:39:37.496Z,56.43
2022-08-05T08:42:27.566Z,56.03
2022-08-05T08:45:22.914Z,56.29
2022-08-05T08:48:10.711Z,56.51
2022-08-05T08:51:03.793Z,56.20
2022-08-05T08:53:35.677Z,56.12
2022-08-05T08:56:06.301Z,55.63
2022-08-05T08:58:43.700Z,55.02
2022-08-05T09:01:18.915Z,55.24
2022-08-05T09:04:02.537Z,55.33
2022-08-05T09:06:36.212Z,55.66
2022-08-05T09:09:04.769Z,55.37
2022-08-05T09:11:52.980Z,55.34
2022-08-05T09:14:56.727Z,54.48
2022-08-05T09:17:40.579Z,53.78
2022-08-05T09:20:05.858Z,53.57
2022-08-05T09:23:05.431Z,53.16
2022-08-05T09:26:01.756Z,52.80
2022-08-05T09:28:31.866Z,52.57
2022-08-05T09:32:39.009Z,52.74
2022-08-05T09:34:00.304Z,52.85
2022-08-05T09:36:56.381Z,52.28
2022-08-05T09:39:56.159Z,50.60
2022-08-05T09:42:28.156Z,49.03
2022-08-05T09:45:17.605Z,48.83
2022-08-05T09:47:56.337Z,49.42
2022-08-05T09:50:38.679Z,48.78
2022-08-05T09:53:18.359Z,48.04
2022-08-05T09:55:56.369Z,48.54
2022-08-05T09:58:38.901Z,48.75
2022-08-05T10:01:14.601Z,48.99
2022-08-05T10:04:09.989Z,49.25
2022-08-05T10:06:54.633Z,48.97
2022-08-05T10:09:28.221Z,49.03
2022-08-05T10:12:30.969Z,49.47
2022-08-05T10:15:17.095Z,49.48
2022-08-05T10:18:17.309Z,49.22
2022-08-05T10:20:52.032Z,48.86
2022-08-05T10:23:55.664Z,49.05
2022-08-05T10:26:19.897Z,49.03
2022-08-05T10:29:00.158Z,49.01
2022-08-05T10:32:51.845Z,48.45
2022-08-05T10:34:16.981Z,48.69
2022-08-05T10:36:45.813Z,48.69
2022-08-05T10:39:25.106Z,48.87
2022-08-05T10:42:18.888Z,48.07
2022-08-05T10:45:01.432Z,48.41
2022-08-05T10:47:34.639Z,48.52
2022-08-05T10:50:32.965Z,48.68
2022-08-05T10:52:58.762Z,48.25
2022-08-05T10:55:27.821Z,48.31
2022-08-05T10:58:12.109Z,48.22
2022-08-05T11:00:55.101Z,48.22
2022-08-05T11:03:29.426Z,48.52
2022-08-05T11:06:30.797Z,48.49
2022-08-05T11:09:24.256Z,48.68
2022-08-05T11:12:24.915Z,48.22
2022-08-05T11:15:59.044Z,48.72
2022-08-05T11:18:26.115Z,48.78
2022-08-05T11:20:54.814Z,48.83
2022-08-05T11:24:04.856Z,48.78
2022-08-05T11:26:43.289Z,48.67
2022-08-05T11:29:35.677Z,48.33
2022-08-05T11:32:28.292Z,48.51
2022-08-05T11:34:57.700Z,48.40
2022-08-05T11:38:29.209Z,48.64
2022-08-05T11:41:14.460Z,48.75
2022-08-05T11:44:08.445Z,48.57
2022-08-05T11:47:11.000Z,48.85
2022-08-05T11:49:49.745Z,49.15
2022-08-05T11:52:29.634Z,48.86
2022-08-05T11:55:07.107Z,48.69
2022-08-05T11:58:08.260Z,48.92
2022-08-05T12:00:29.190Z,48.79
2022-08-05T12:03:15.047Z,47.98
2022-08-05T12:05:43.718Z,48.22
2022-08-05T12:08:17.970Z,48.74
2022-08-05T12:10:49.819Z,48.48
2022-08-05T12:13:27.877Z,48.39
2022-08-05T12:16:15.363Z,47.91
2022-08-05T12:18:49.449Z,48.25
2022-08-05T12:24:11.033Z,48.08
2022-08-05T12:26:44.283Z,47.74
2022-08-05T12:29:16.406Z,47.54
2022-08-05T12:31:57.172Z,47.59
2022-08-05T12:34:31.478Z,47.69
2022-08-05T12:37:07.614Z,47.17
2022-08-05T12:47:19.395Z,47.33
2022-08-05T12:50:07.826Z,47.32
2022-08-05T12:53:03.011Z,47.45
2022-08-05T12:59:27.488Z,47.12
2022-08-05T13:06:23.493Z,46.95
2022-08-05T13:08:52.897Z,47.59
2022-08-05T13:12:42.514Z,46.99
2022-08-05T13:16:28.650Z,47.38
2022-08-05T13:18:58.560Z,46.89
2022-08-05T13:21:28.342Z,47.22
2022-08-05T13:24:08.912Z,46.48
2022-08-05T13:26:37.196Z,46.25
2022-08-05T13:29:05.520Z,45.79
2022-08-05T13:32:04.315Z,45.77
2022-08-05T13:34:25.857Z,45.75
2022-08-05T13:36:54.718Z,44.61
2022-08-05T13:40:13.987Z,44.78
2022-08-05T13:42:14.703Z,44.87
2022-08-05T13:44:45.726Z,44.88
2022-08-05T13:47:34.568Z,45.27
2022-08-05T13:50:06.806Z,44.94
2022-08-05T13:52:38.326Z,45.49
2022-08-05T13:55:07.524Z,44.95
2022-08-05T13:57:49.016Z,45.26
2022-08-05T14:00:26.894Z,44.47
2022-08-05T14:02:57.298Z,44.21
2022-08-05T14:05:48.129Z,44.50
2022-08-05T14:08:20.077Z,44.35
2022-08-05T14:10:49.716Z,44.33
2022-08-05T14:13:17.736Z,44.19
2022-08-05T14:16:07.367Z,44.16
2022-08-05T14:18:37.952Z,44.07
2022-08-05T14:22:07.490Z,43.65
2022-08-05T14:23:54.346Z,43.20
2022-08-05T14:26:38.453Z,43.19
2022-08-05T14:29:10.024Z,43.50
2022-08-05T14:32:02.770Z,43.67
2022-08-05T14:34:36.090Z,44.04
2022-08-05T14:37:05.086Z,44.11
2022-08-05T14:39:49.637Z,44.10
2022-08-05T14:42:22.517Z,44.52
2022-08-05T14:44:53.540Z,44.52
2022-08-05T14:48:03.339Z,44.48
2022-08-05T14:50:18.082Z,44.44
2022-08-05T14:52:53.552Z,44.24
2022-08-05T14:55:38.777Z,44.29
2022-08-05T14:58:12.206Z,44.34
2022-08-05T15:00:58.577Z,44.60
2022-08-05T15:03:33.746Z,44.47
2022-08-05T15:06:15.082Z,44.78
2022-08-05T15:09:01.124Z,44.34
2022-08-05T15:11:51.956Z,44.37
2022-08-05T15:14:35.066Z,44.78
2022-08-05T15:17:44.554Z,44.46
2022-08-05T15:19:59.381Z,44.67
2022-08-05T15:22:28.182Z,44.96
2022-08-05T15:24:59.883Z,44.76
2022-08-05T15:27:32.284Z,44.75
2022-08-05T15:30:04.924Z,44.68
2022-08-05T15:32:33.092Z,44.58
2022-08-05T15:35:09.876Z,44.17
2022-08-05T15:38:32.613Z,44.20
2022-08-05T15:40:58.187Z,44.26
2022-08-05T15:43:22.009Z,44.22
2022-08-05T15:46:00.050Z,44.08
2022-08-05T15:48:30.215Z,44.00
2022-08-05T15:51:03.626Z,44.38
2022-08-05T15:53:38.407Z,44.41
2022-08-05T15:56:20.260Z,44.56
2022-08-05T15:58:49.024Z,44.41
2022-08-05T16:01:20.177Z,44.15
2022-08-05T16:04:00.104Z,44.00
2022-08-05T16:06:28.082Z,44.31
2022-08-05T16:08:55.986Z,44.61
2022-08-05T16:11:42.938Z,44.86
2022-08-05T16:14:17.129Z,44.57
2022-08-05T16:16:47.038Z,44.62
2022-08-05T16:19:25.243Z,44.87
2022-08-05T16:22:04.603Z,44.72
2022-08-05T16:24:40.260Z,44.57
2022-08-05T16:27:16.421Z,44.61
2022-08-05T16:29:50.274Z,44.61
2022-08-05T16:32:23.654Z,44.61
2022-08-05T16:34:59.031Z,44.87
2022-08-05T16:38:16.147Z,44.86
2022-08-05T16:40:28.549Z,45.08
2022-08-05T16:42:57.378Z,45.22
2022-08-05T16:46:04.729Z,45.15
2022-08-05T16:48:25.183Z,44.95
2022-08-05T16:50:54.832Z,45.09
2022-08-05T16:53:32.577Z,45.08
2022-08-05T16:56:11.846Z,45.20
2022-08-05T16:58:40.866Z,45.63
2022-08-05T17:01:10.604Z,45.42
2022-08-05T17:03:38.936Z,45.73
2022-08-05T17:06:07.544Z,46.39
2022-08-05T17:08:52.074Z,46.78
2022-08-05T17:11:25.363Z,47.96
2022-08-05T17:14:00.496Z,48.49
2022-08-05T17:16:36.526Z,49.84
2022-08-05T17:19:09.708Z,49.49
2022-08-05T17:21:39.525Z,50.34
2022-08-05T17:24:19.428Z,51.81
2022-08-05T17:26:58.452Z,52.74
2022-08-05T17:29:33.565Z,52.46
2022-08-05T17:32:17.268Z,53.33
2022-08-05T17:34:48.185Z,54.73
2022-08-05T17:37:40.463Z,54.94
2022-08-05T17:40:12.430Z,55.66
2022-08-05T17:42:50.911Z,55.65
2022-08-05T17:45:22.140Z,56.31
2022-08-05T17:47:55.812Z,56.59
2022-08-05T17:50:30.284Z,57.49
2022-08-05T17:53:04.536Z,58.32
2022-08-05T17:55:34.287Z,58.47
2022-08-05T17:58:13.067Z,58.96
2022-08-05T18:00:47.438Z,59.52
2022-08-05T18:03:58.376Z,59.84
2022-08-05T18:06:12.320Z,60.48
2022-08-05T18:08:52.182Z,60.99
2022-08-05T18:11:24.579Z,61.24
2022-08-05T18:13:59.797Z,61.74
2022-08-05T18:16:27.770Z,62.15
2022-08-05T18:18:57.378Z,63.00
2022-08-05T18:21:26.490Z,63.30
2022-08-05T18:24:14.477Z,63.44
2022-08-05T18:26:43.833Z,63.42
2022-08-05T18:29:11.863Z,63.40
2022-08-05T18:31:44.994Z,63.50
2022-08-05T18:34:14.971Z,63.93
2022-08-05T18:36:54.342Z,64.20
2022-08-05T18:40:31.814Z,64.69
2022-08-05T18:42:11.372Z,64.85
2022-08-05T18:44:49.166Z,64.87
2022-08-05T18:47:26.862Z,65.24
2022-08-05T18:50:15.579Z,65.45
2022-08-05T18:52:51.217Z,64.98
2022-08-05T18:55:22.387Z,65.16
2022-08-05T18:57:53.295Z,65.28
2022-08-05T19:00:28.774Z,65.52
2022-08-05T19:03:03.547Z,65.59
2022-08-05T19:06:11.128Z,65.78
2022-08-05T19:08:30.591Z,65.75
2022-08-05T19:11:02.728Z,65.68
2022-08-05T19:13:36.026Z,66.16
2022-08-05T19:16:22.027Z,65.99
2022-08-05T19:18:56.766Z,66.27
2022-08-05T19:21:27.589Z,66.79
2022-08-05T19:24:06.626Z,67.06
2022-08-05T19:26:43.774Z,66.87
2022-08-05T19:29:26.803Z,67.23
2022-08-05T19:32:08.774Z,67.74
2022-08-05T19:34:40.389Z,68.05
2022-08-05T19:37:10.140Z,68.00
2022-08-05T19:39:45.608Z,68.20
2022-08-05T19:42:35.545Z,68.27
2022-08-05T19:45:05.549Z,68.64
2022-08-05T19:47:37.994Z,68.56
2022-08-05T19:50:07.620Z,68.56
2022-08-05T19:52:39.301Z,68.45
2022-08-05T19:56:13.828Z,68.41
2022-08-05T19:58:10.379Z,68.69
2022-08-05T20:00:44.497Z,69.06
2022-08-05T20:03:12.494Z,69.27
2022-08-05T20:05:49.864Z,69.41
2022-08-05T20:08:20.287Z,69.69
2022-08-05T20:10:49.678Z,69.68
2022-08-05T20:13:30.272Z,70.08
2022-08-05T20:16:12.709Z,70.26
2022-08-05T20:18:55.375Z,70.35
2022-08-05T20:21:25.715Z,70.27
2022-08-05T20:23:53.663Z,70.27
2022-08-05T20:26:27.445Z,70.26
2022-08-05T20:28:57.513Z,70.36
2022-08-05T20:31:42.077Z,70.62
2022-08-05T20:34:17.615Z,70.71
2022-08-05T20:36:45.608Z,70.69
2022-08-05T20:39:16.794Z,70.64
2022-08-05T20:41:47.829Z,70.70
2022-08-05T20:44:30.456Z,70.66
2022-08-05T20:47:03.455Z,70.48
2022-08-05T20:49:33.174Z,70.65
2022-08-05T20:52:08.768Z,70.70
2022-08-05T20:54:55.241Z,70.78
2022-08-05T20:57:43.674Z,70.83
2022-08-05T21:00:40.459Z,71.09
2022-08-05T21:03:06.727Z,71.29
2022-08-05T21:05:53.908Z,71.17
2022-08-05T21:08:26.631Z,71.22
2022-08-05T21:11:15.097Z,71.20
2022-08-05T21:14:06.117Z,71.27
2022-08-05T21:16:35.713Z,71.04
2022-08-05T21:19:04.741Z,71.16
2022-08-05T21:21:44.522Z,70.97
2022-08-05T21:24:31.763Z,71.12
2022-08-05T21:27:00.148Z,71.38
2022-08-05T21:29:31.885Z,71.42
2022-08-05T21:32:06.984Z,71.47
2022-08-05T21:35:06.716Z,71.77
2022-08-05T21:37:41.454Z,71.84
2022-08-05T21:40:13.089Z,71.84
2022-08-05T21:42:45.639Z,71.83
2022-08-05T21:45:51.849Z,71.86
2022-08-05T21:48:25.935Z,71.91
2022-08-05T21:50:54.457Z,71.62
2022-08-05T21:53:27.503Z,71.68
2022-08-05T21:56:16.210Z,71.40
2022-08-05T21:58:56.905Z,71.49
2022-08-05T22:01:26.718Z,71.61
2022-08-05T22:04:13.318Z,71.56
2022-08-05T22:06:42.305Z,71.89
2022-08-05T22:09:21.460Z,71.40
2022-08-05T22:11:50.527Z,71.52
2022-08-05T22:14:35.696Z,71.71
2022-08-05T22:17:07.231Z,71.82
2022-08-05T22:20:01.495Z,72.12
2022-08-05T22:22:26.924Z,72.05
2022-08-05T22:25:21.645Z,71.63
2022-08-05T22:28:09.336Z,71.80
2022-08-05T22:30:44.031Z,71.77
2022-08-05T22:33:56.594Z,71.79
2022-08-05T22:36:15.185Z,71.73
2022-08-05T22:38:48.215Z,71.79
2022-08-05T22:41:26.307Z,71.60
2022-08-05T22:44:08.598Z,71.29
2022-08-05T22:46:39.468Z,71.44
2022-08-05T22:49:23.008Z,71.35
2022-08-05T22:52:06.568Z,71.15
2022-08-05T22:54:40.667Z,71.29
2022-08-05T22:57:24.966Z,71.35
2022-08-05T22:59:54.537Z,71.22
2022-08-05T23:02:29.421Z,71.03
2022-08-05T23:05:01.978Z,70.94
2022-08-05T23:07:35.742Z,70.89
2022-08-05T23:10:20.274Z,70.77
2022-08-05T23:12:51.730Z,70.76
2022-08-05T23:15:29.829Z,70.81
2022-08-05T23:18:06.050Z,70.72
2022-08-05T23:20:40.501Z,70.66
2022-08-05T23:23:11.457Z,70.46
2022-08-05T23:25:52.144Z,70.59
2022-08-05T23:28:28.880Z,70.51
2022-08-05T23:31:16.177Z,70.43
2022-08-05T23:34:03.326Z,70.36
2022-08-05T23:36:39.912Z,70.51
2022-08-05T23:39:17.202Z,70.73
2022-08-05T23:41:52.685Z,70.43
2022-08-05T23:44:31.094Z,70.45
2022-08-05T23:47:02.521Z,70.61
2022-08-05T23:49:45.556Z,70.74
2022-08-05T23:52:32.306Z,70.43
2022-08-05T23:55:07.207Z,70.53
2022-08-05T23:57:37.260Z,70.79
